Time;durP1;ratioP1;P1;durP2;ratioP2;P2;SDS_P1;SDS_P2;PMS_P1;PMS_P2;Temp;Humidity;BMP_temperature;BMP_pressure;BME280_temperature;BME280_humidity;BME280_pressure;Samples;Min_cycle;Max_cycle;Signal;HPM_P1;HPM_P2
2021/03/09 00:01:10;;;;;;;13.82;9.43;;;1.80;97.70;;;;;;4929308;29;20244;-80
2021/03/09 00:03:37;;;;;;;10.80;9.73;;;1.70;97.80;;;;;;4929379;29;20211;-80
2021/03/09 00:06:03;;;;;;;10.60;9.60;;;1.70;97.80;;;;;;4929690;29;20215;-80
2021/03/09 00:08:29;;;;;;;12.05;9.05;;;1.70;97.80;;;;;;4929429;29;20207;-80
2021/03/09 00:10:56;;;;;;;9.50;8.60;;;1.60;97.90;;;;;;4929129;29;20233;-80
2021/03/09 00:13:23;;;;;;;11.15;8.30;;;1.60;98.00;;;;;;4928377;29;20257;-80
2021/03/09 00:15:49;;;;;;;9.00;8.10;;;1.60;98.10;;;;;;4928228;29;20725;-79
2021/03/09 00:18:18;;;;;;;11.63;7.32;;;1.60;98.20;;;;;;4930069;29;20207;-79
2021/03/09 00:20:45;;;;;;;9.88;8.43;;;1.50;98.20;;;;;;4929465;29;20305;-80
2021/03/09 00:23:11;;;;;;;10.68;9.48;;;1.50;98.30;;;;;;4930941;29;20218;-81
2021/03/09 00:25:37;;;;;;;10.57;9.18;;;1.50;98.40;;;;;;4930956;29;20218;-79
2021/03/09 00:28:04;;;;;;;11.90;9.15;;;1.50;98.50;;;;;;4929640;29;20211;-79
2021/03/09 00:30:30;;;;;;;12.98;11.50;;;1.50;98.50;;;;;;4930592;29;20223;-79
2021/03/09 00:32:56;;;;;;;12.57;10.13;;;1.50;98.60;;;;;;4929844;29;20222;-80
2021/03/09 00:35:24;;;;;;;12.77;10.40;;;1.50;98.60;;;;;;4930517;29;20202;-80
2021/03/09 00:37:50;;;;;;;14.18;10.40;;;1.50;98.70;;;;;;4930428;29;20208;-80
2021/03/09 00:40:16;;;;;;;12.40;9.25;;;1.50;98.70;;;;;;4930033;29;20215;-81
2021/03/09 00:42:42;;;;;;;12.75;9.32;;;1.40;98.70;;;;;;4929443;29;20573;-80
2021/03/09 00:45:09;;;;;;;9.65;8.70;;;1.40;98.80;;;;;;4929857;29;20258;-81
2021/03/09 00:47:36;;;;;;;11.63;7.93;;;1.40;98.90;;;;;;4929724;29;20218;-79
2021/03/09 00:50:03;;;;;;;12.27;8.88;;;1.40;99.00;;;;;;4930123;29;20215;-80
2021/03/09 00:52:30;;;;;;;11.85;9.95;;;1.40;99.10;;;;;;4928877;29;20204;-80
2021/03/09 00:54:56;;;;;;;11.43;10.25;;;1.40;99.20;;;;;;4927897;29;20654;-80
2021/03/09 00:57:22;;;;;;;11.48;10.32;;;1.40;99.20;;;;;;4928181;29;20222;-80
2021/03/09 00:59:48;;;;;;;11.73;10.25;;;1.40;99.20;;;;;;4928054;29;20213;-80
2021/03/09 01:02:15;;;;;;;12.90;9.25;;;1.40;99.30;;;;;;4927857;29;20260;-80
2021/03/09 01:04:41;;;;;;;8.77;7.85;;;1.30;99.30;;;;;;4928458;29;20214;-81
2021/03/09 01:07:07;;;;;;;8.88;8.05;;;1.40;99.40;;;;;;4928721;29;20210;-81
2021/03/09 01:09:34;;;;;;;13.45;9.65;;;1.40;99.50;;;;;;4927658;29;20222;-80
2021/03/09 01:12:00;;;;;;;11.48;8.82;;;1.30;99.50;;;;;;4927992;29;20237;-80
2021/03/09 01:14:27;;;;;;;10.68;8.77;;;1.30;99.50;;;;;;4928749;29;20219;-80
2021/03/09 01:16:53;;;;;;;11.05;9.95;;;1.30;99.50;;;;;;4928921;29;20211;-80
2021/03/09 01:19:19;;;;;;;10.52;8.27;;;1.30;99.50;;;;;;4929309;29;20208;-81
2021/03/09 01:21:46;;;;;;;12.07;10.93;;;1.20;99.50;;;;;;4928968;29;20232;-80
2021/03/09 01:24:12;;;;;;;14.15;9.60;;;1.20;99.60;;;;;;4928839;29;20211;-81
2021/03/09 01:26:40;;;;;;;10.82;9.43;;;1.20;99.60;;;;;;4928704;29;20213;-80
2021/03/09 01:29:06;;;;;;;11.15;8.90;;;1.20;99.60;;;;;;4928990;29;20211;-80
2021/03/09 01:31:32;;;;;;;9.05;8.15;;;1.20;99.70;;;;;;4928998;29;20233;-80
2021/03/09 01:33:58;;;;;;;10.88;8.93;;;1.20;99.70;;;;;;4928490;29;20210;-80
2021/03/09 01:36:25;;;;;;;12.85;9.75;;;1.20;99.80;;;;;;4926132;29;20231;-80
2021/03/09 01:38:51;;;;;;;11.68;9.02;;;1.20;99.90;;;;;;4928623;29;20211;-80
2021/03/09 01:41:17;;;;;;;14.38;10.50;;;1.20;99.90;;;;;;4928939;29;20234;-80
2021/03/09 01:43:44;;;;;;;13.25;9.60;;;1.20;99.90;;;;;;4928615;29;20204;-80
2021/03/09 01:46:12;;;;;;;15.63;8.18;;;1.20;99.90;;;;;;4929021;29;20215;-80
2021/03/09 01:48:43;;;;;;;10.27;9.25;;;1.20;99.90;;;;;;4928914;29;20747;-80
2021/03/09 01:51:10;;;;;;;12.80;9.48;;;1.20;99.90;;;;;;4928361;29;20227;-80
2021/03/09 01:53:37;;;;;;;10.55;9.50;;;1.10;99.90;;;;;;4928257;29;20223;-80
2021/03/09 01:56:03;;;;;;;12.60;9.35;;;1.10;99.90;;;;;;4928492;29;20227;-79
2021/03/09 01:58:32;;;;;;;12.85;9.77;;;1.10;99.90;;;;;;4929046;29;20208;-80
2021/03/09 02:00:59;;;;;;;14.35;11.02;;;1.10;99.90;;;;;;4929074;29;20235;-80
2021/03/09 02:03:25;;;;;;;12.52;9.88;;;1.10;99.90;;;;;;4928817;29;20211;-80
2021/03/09 02:05:52;;;;;;;11.43;10.27;;;1.10;99.90;;;;;;4929234;29;20226;-80
2021/03/09 02:08:18;;;;;;;11.38;8.82;;;1.10;99.90;;;;;;4929283;29;20223;-80
2021/03/09 02:10:44;;;;;;;13.02;8.45;;;1.10;99.90;;;;;;4928661;29;20254;-81
2021/03/09 02:13:28;;;;;;;12.07;9.88;;;1.10;99.90;;;;;;4929147;29;20211;-80
2021/03/09 02:16:00;;;;;;;10.25;8.70;;;1.00;99.90;;;;;;4928802;29;20218;-80
2021/03/09 02:18:36;;;;;;;10.63;8.32;;;1.00;99.90;;;;;;4928497;29;20224;-80
2021/03/09 02:21:38;;;;;;;12.57;8.70;;;0.90;99.90;;;;;;4928793;29;20235;-80
2021/03/09 02:24:34;;;;;;;13.77;12.32;;;0.90;99.90;;;;;;4929572;29;20210;-81
2021/03/09 02:27:17;;;;;;;12.18;10.13;;;0.80;99.90;;;;;;4922606;29;20207;-80
2021/03/09 02:30:13;;;;;;;14.38;9.05;;;0.80;99.90;;;;;;4930208;29;20584;-80
2021/03/09 02:32:44;;;;;;;14.77;11.02;;;0.80;99.90;;;;;;4929701;29;20226;-79
2021/03/09 02:35:16;;;;;;;17.50;10.48;;;0.80;99.90;;;;;;4930964;29;20230;-80
2021/03/09 02:37:43;;;;;;;9.95;8.18;;;0.80;99.90;;;;;;4930514;29;20242;-80
2021/03/09 02:40:14;;;;;;;10.98;8.30;;;0.80;99.90;;;;;;4930024;29;20221;-80
2021/03/09 02:42:47;;;;;;;11.32;9.93;;;0.80;99.90;;;;;;4930474;29;20236;-81
2021/03/09 02:45:17;;;;;;;11.02;9.90;;;0.80;99.90;;;;;;4931069;29;20211;-81
2021/03/09 02:47:46;;;;;;;12.40;9.20;;;0.80;99.90;;;;;;4930978;29;20623;-81
2021/03/09 02:50:15;;;;;;;10.43;9.43;;;0.80;99.90;;;;;;4931173;29;20210;-80
2021/03/09 02:52:46;;;;;;;11.88;9.85;;;0.80;99.90;;;;;;4930937;29;20207;-80
2021/03/09 02:55:15;;;;;;;9.93;8.90;;;0.80;99.90;;;;;;4930744;29;20221;-81
2021/03/09 02:57:42;;;;;;;10.27;9.38;;;0.80;99.90;;;;;;4931527;29;20674;-81
2021/03/09 03:00:10;;;;;;;12.40;9.30;;;0.80;99.90;;;;;;4930052;29;20265;-81
2021/03/09 03:02:39;;;;;;;11.40;9.55;;;0.80;99.90;;;;;;4930717;29;20236;-80
2021/03/09 03:05:10;;;;;;;11.60;8.55;;;0.80;99.90;;;;;;4930789;29;20210;-81
2021/03/09 03:07:38;;;;;;;12.60;10.85;;;0.90;99.90;;;;;;4930406;29;20301;-81
2021/03/09 03:10:06;;;;;;;15.10;10.63;;;0.80;99.90;;;;;;4929922;29;20223;-81
2021/03/09 03:12:33;;;;;;;10.48;9.18;;;0.70;99.90;;;;;;4930492;29;20248;-81
2021/03/09 03:15:01;;;;;;;9.52;8.13;;;0.70;99.90;;;;;;4930538;29;20223;-81
2021/03/09 03:17:29;;;;;;;10.93;9.82;;;0.70;99.90;;;;;;4930886;29;20200;-81
2021/03/09 03:19:57;;;;;;;10.60;9.50;;;0.70;99.90;;;;;;4931264;29;20218;-81
2021/03/09 03:22:25;;;;;;;13.13;9.88;;;0.70;99.90;;;;;;4930433;29;20243;-81
2021/03/09 03:24:53;;;;;;;11.63;10.40;;;0.70;99.90;;;;;;4930762;29;20588;-80
2021/03/09 03:27:20;;;;;;;13.23;9.38;;;0.70;99.90;;;;;;4930023;29;20211;-81
2021/03/09 03:29:47;;;;;;;11.30;9.68;;;0.80;99.90;;;;;;4930768;29;20212;-81
2021/03/09 03:32:14;;;;;;;18.77;9.50;;;0.70;99.90;;;;;;4930259;29;20231;-81
2021/03/09 03:34:40;;;;;;;12.82;9.80;;;0.70;99.90;;;;;;4933291;29;20243;-81
2021/03/09 03:37:08;;;;;;;18.10;10.48;;;0.70;99.90;;;;;;4933323;29;20212;-80
2021/03/09 03:39:36;;;;;;;10.55;8.70;;;0.70;99.90;;;;;;4934450;29;20214;-81
2021/03/09 03:42:03;;;;;;;11.45;9.20;;;0.70;99.90;;;;;;4933489;29;20236;-80
2021/03/09 03:44:29;;;;;;;13.63;9.43;;;0.70;99.90;;;;;;4934236;29;20211;-80
2021/03/09 03:46:56;;;;;;;10.20;8.90;;;0.70;99.90;;;;;;4933910;29;20263;-81
2021/03/09 03:49:22;;;;;;;14.40;10.73;;;0.70;99.90;;;;;;4933675;29;20266;-81
2021/03/09 03:51:54;;;;;;;11.68;9.70;;;0.70;99.90;;;;;;4933346;29;20229;-81
2021/03/09 03:54:30;;;;;;;16.40;9.77;;;0.70;99.90;;;;;;4933254;29;20222;-80
2021/03/09 03:56:59;;;;;;;13.40;10.02;;;0.70;99.90;;;;;;4932885;29;20210;-80
2021/03/09 03:59:30;;;;;;;9.55;8.65;;;0.70;99.90;;;;;;4933628;29;20238;-80
2021/03/09 04:02:00;;;;;;;11.57;10.35;;;0.70;99.90;;;;;;4933476;29;20246;-81
2021/03/09 04:04:28;;;;;;;12.75;10.38;;;0.70;99.90;;;;;;4933802;29;20207;-80
2021/03/09 04:06:55;;;;;;;13.60;9.20;;;0.70;99.90;;;;;;4932731;29;20212;-81
2021/03/09 04:09:23;;;;;;;10.82;9.68;;;0.70;99.90;;;;;;4932772;29;20214;-81
2021/03/09 04:11:50;;;;;;;16.15;8.93;;;0.70;99.90;;;;;;4932825;29;20236;-80
2021/03/09 04:14:17;;;;;;;12.77;8.43;;;0.70;99.90;;;;;;4932915;29;20212;-80
2021/03/09 04:16:47;;;;;;;13.63;11.98;;;0.70;99.90;;;;;;4932501;29;20261;-80
2021/03/09 04:19:14;;;;;;;11.65;9.45;;;0.70;99.90;;;;;;4931860;29;20219;-80
2021/03/09 04:21:42;;;;;;;12.73;9.63;;;0.60;99.90;;;;;;4931823;29;20230;-80
2021/03/09 04:24:10;;;;;;;11.60;9.35;;;0.60;99.90;;;;;;4932074;29;20586;-80
2021/03/09 04:26:39;;;;;;;10.63;9.52;;;0.60;99.90;;;;;;4932003;29;20211;-80
2021/03/09 04:29:07;;;;;;;13.05;9.07;;;0.60;99.90;;;;;;4932118;29;20216;-79
2021/03/09 04:31:34;;;;;;;13.07;10.45;;;0.60;99.90;;;;;;4931175;29;20232;-80
2021/03/09 04:34:01;;;;;;;14.65;12.63;;;0.60;99.90;;;;;;4930970;29;21012;-80
2021/03/09 04:36:28;;;;;;;11.90;9.80;;;0.60;99.90;;;;;;4932009;29;20343;-81
2021/03/09 04:38:54;;;;;;;14.68;11.27;;;0.50;99.90;;;;;;4931302;29;20224;-80
2021/03/09 04:41:20;;;;;;;11.60;9.20;;;0.50;99.90;;;;;;4930761;29;20258;-80
2021/03/09 04:43:48;;;;;;;11.75;9.80;;;0.50;99.90;;;;;;4930895;29;20210;-80
2021/03/09 04:46:15;;;;;;;13.30;9.88;;;0.50;99.90;;;;;;4930139;29;20222;-80
2021/03/09 04:48:41;;;;;;;12.25;10.95;;;0.50;99.90;;;;;;4930840;29;20828;-80
2021/03/09 04:51:11;;;;;;;12.57;11.27;;;0.50;99.90;;;;;;4930764;29;20258;-80
2021/03/09 04:53:39;;;;;;;10.80;9.55;;;0.50;99.90;;;;;;4930258;29;20720;-80
2021/03/09 04:56:06;;;;;;;13.45;12.10;;;0.50;99.90;;;;;;4927246;29;20211;-79
2021/03/09 04:58:33;;;;;;;11.60;10.45;;;0.50;99.90;;;;;;4921369;29;20206;-80
2021/03/09 05:01:00;;;;;;;18.10;11.10;;;0.50;99.90;;;;;;4920770;29;20271;-79
2021/03/09 05:03:26;;;;;;;13.65;10.43;;;0.50;99.90;;;;;;4920924;29;20214;-79
2021/03/09 05:05:53;;;;;;;12.73;10.55;;;0.50;99.90;;;;;;4921426;29;20222;-79
2021/03/09 05:08:19;;;;;;;16.30;11.90;;;0.50;99.90;;;;;;4921128;29;20214;-80
2021/03/09 05:10:46;;;;;;;10.30;9.07;;;0.50;99.90;;;;;;4920740;29;20250;-80
2021/03/09 05:13:12;;;;;;;12.52;10.75;;;0.50;99.90;;;;;;4921029;29;20210;-80
2021/03/09 05:15:38;;;;;;;10.93;9.27;;;0.50;99.90;;;;;;4920584;29;20211;-80
2021/03/09 05:18:06;;;;;;;12.55;9.77;;;0.50;99.90;;;;;;4921282;29;20218;-80
2021/03/09 05:20:32;;;;;;;12.50;10.38;;;0.50;99.90;;;;;;4921027;29;20239;-80
2021/03/09 05:22:58;;;;;;;11.93;10.57;;;0.50;99.90;;;;;;4920384;29;20688;-79
2021/03/09 05:25:24;;;;;;;10.60;9.55;;;0.50;99.90;;;;;;4920277;29;20214;-79
2021/03/09 05:27:51;;;;;;;12.10;9.77;;;0.50;99.90;;;;;;4920343;29;20214;-79
2021/03/09 05:30:19;;;;;;;9.98;9.05;;;0.50;99.90;;;;;;4920705;29;20211;-80
2021/03/09 05:32:46;;;;;;;11.68;10.68;;;0.50;99.90;;;;;;4920729;29;20207;-79
2021/03/09 05:35:15;;;;;;;12.88;10.05;;;0.50;99.90;;;;;;4920392;29;20589;-80
2021/03/09 05:37:42;;;;;;;15.90;11.10;;;0.40;99.90;;;;;;4920309;29;20210;-79
2021/03/09 05:40:09;;;;;;;17.13;11.98;;;0.40;99.90;;;;;;4920624;29;20207;-79
2021/03/09 05:42:36;;;;;;;14.20;11.63;;;0.50;99.90;;;;;;4919949;29;20234;-79
2021/03/09 05:45:05;;;;;;;14.00;12.55;;;0.50;99.90;;;;;;4920112;29;20210;-79
2021/03/09 05:47:32;;;;;;;22.13;11.93;;;0.50;99.90;;;;;;4920426;29;20214;-80
2021/03/09 05:49:58;;;;;;;17.50;11.80;;;0.50;99.90;;;;;;4920913;29;20210;-79
2021/03/09 05:52:25;;;;;;;17.67;13.30;;;0.50;99.90;;;;;;4919535;29;20277;-79
2021/03/09 05:54:52;;;;;;;20.83;15.10;;;0.50;99.90;;;;;;4920437;29;20238;-80
2021/03/09 05:57:18;;;;;;;17.67;16.05;;;0.50;99.90;;;;;;4920010;29;20206;-80
2021/03/09 05:59:44;;;;;;;16.98;15.32;;;0.60;99.90;;;;;;4920636;29;20237;-79
2021/03/09 06:02:10;;;;;;;19.13;14.73;;;0.60;99.90;;;;;;4920141;29;20237;-79
2021/03/09 06:04:37;;;;;;;18.48;14.27;;;0.60;99.90;;;;;;4921232;29;20221;-80
2021/03/09 06:07:04;;;;;;;15.27;13.68;;;0.60;99.90;;;;;;4920089;29;20266;-80
2021/03/09 06:09:42;;;;;;;14.60;13.20;;;0.60;99.90;;;;;;4920140;29;20218;-79
2021/03/09 06:12:13;;;;;;;16.73;11.88;;;0.70;99.90;;;;;;4919949;29;20230;-80
2021/03/09 06:14:41;;;;;;;16.02;14.38;;;0.70;99.90;;;;;;4920759;29;20211;-79
2021/03/09 06:17:11;;;;;;;13.60;11.85;;;0.70;99.90;;;;;;4920283;29;20227;-80
2021/03/09 06:19:45;;;;;;;14.00;12.60;;;0.80;99.90;;;;;;4920954;29;20218;-80
2021/03/09 06:22:12;;;;;;;16.45;14.07;;;0.80;99.90;;;;;;4920197;29;20718;-79
2021/03/09 06:24:38;;;;;;;16.65;13.60;;;0.90;99.90;;;;;;4920715;29;20215;-79
2021/03/09 06:27:23;;;;;;;16.35;13.70;;;0.90;99.90;;;;;;4924360;29;20724;-79
2021/03/09 06:29:49;;;;;;;17.63;12.75;;;1.00;99.90;;;;;;4924632;29;20215;-77
2021/03/09 06:32:16;;;;;;;14.13;12.70;;;1.00;99.90;;;;;;4920346;29;20318;-78
2021/03/09 06:34:42;;;;;;;13.80;12.40;;;1.10;99.90;;;;;;4917563;29;20216;-78
2021/03/09 06:37:11;;;;;;;13.85;12.40;;;1.10;99.90;;;;;;4917126;29;20215;-78
2021/03/09 06:39:50;;;;;;;15.25;12.40;;;1.20;99.90;;;;;;4917547;29;20237;-79
2021/03/09 06:42:19;;;;;;;15.88;14.23;;;1.20;99.90;;;;;;4916987;29;20627;-78
2021/03/09 06:44:57;;;;;;;19.63;15.63;;;1.20;99.90;;;;;;4916956;29;20207;-78
2021/03/09 06:47:39;;;;;;;20.77;15.18;;;1.30;99.90;;;;;;4916917;29;20199;-79
2021/03/09 06:50:09;;;;;;;19.73;14.85;;;1.30;99.90;;;;;;4909834;29;20211;-78
2021/03/09 06:52:35;;;;;;;14.68;13.10;;;1.40;99.90;;;;;;4916794;29;20204;-78
2021/03/09 06:55:03;;;;;;;16.90;15.20;;;1.40;99.90;;;;;;4916866;29;20229;-78
2021/03/09 06:57:30;;;;;;;17.38;15.45;;;1.50;99.90;;;;;;4917111;29;20255;-78
2021/03/09 06:59:56;;;;;;;18.55;13.25;;;1.60;99.90;;;;;;4917710;29;20212;-79
2021/03/09 07:02:24;;;;;;;16.45;14.75;;;1.70;99.90;;;;;;4920067;29;20230;-80
2021/03/09 07:04:52;;;;;;;16.08;14.02;;;1.80;99.90;;;;;;4922337;29;20223;-79
2021/03/09 07:07:28;;;;;;;17.50;11.75;;;1.90;99.90;;;;;;4922264;29;20218;-79
2021/03/09 07:09:58;;;;;;;17.23;13.45;;;2.00;99.90;;;;;;4926096;29;20668;-79
2021/03/09 07:12:24;;;;;;;16.65;14.98;;;2.10;99.90;;;;;;4925457;29;20282;-80
2021/03/09 07:14:53;;;;;;;19.13;14.07;;;2.20;99.90;;;;;;4925430;29;20216;-79
2021/03/09 07:17:21;;;;;;;17.23;14.57;;;2.40;99.90;;;;;;4926372;29;20267;-80
2021/03/09 07:19:48;;;;;;;16.00;12.27;;;2.50;99.90;;;;;;4925692;29;20217;-79
2021/03/09 07:22:17;;;;;;;18.60;15.60;;;2.60;99.90;;;;;;4925304;29;20333;-79
2021/03/09 07:24:49;;;;;;;17.17;14.90;;;2.70;99.90;;;;;;4924765;29;20219;-79
2021/03/09 07:27:25;;;;;;;19.85;14.43;;;2.80;99.90;;;;;;4924937;29;20566;-79
2021/03/09 07:29:57;;;;;;;14.85;13.43;;;2.90;99.90;;;;;;4925364;29;20201;-80
2021/03/09 07:32:26;;;;;;;20.75;14.13;;;3.00;99.90;;;;;;4925709;29;20249;-79
2021/03/09 07:34:54;;;;;;;17.83;13.98;;;3.20;99.90;;;;;;4922399;29;20352;-79
2021/03/09 07:37:20;;;;;;;17.23;13.63;;;3.30;99.90;;;;;;4921017;29;20284;-79
2021/03/09 07:39:47;;;;;;;16.98;15.13;;;3.40;99.90;;;;;;4918065;29;20202;-79
2021/03/09 07:42:13;;;;;;;14.30;12.88;;;3.50;99.90;;;;;;4919804;29;20245;-79
2021/03/09 07:44:41;;;;;;;15.55;12.55;;;3.60;99.90;;;;;;4921049;29;20226;-79
2021/03/09 07:47:11;;;;;;;18.25;15.45;;;3.80;99.90;;;;;;4920406;29;20210;-79
2021/03/09 07:49:39;;;;;;;16.85;13.27;;;3.90;99.90;;;;;;4920431;29;20682;-79
2021/03/09 07:52:16;;;;;;;19.63;14.50;;;4.00;99.90;;;;;;4912474;29;20234;-79
2021/03/09 07:55:27;;;;;;;20.88;14.45;;;4.10;99.40;;;;;;4912142;29;20246;-79
2021/03/09 07:58:36;;;;;;;17.52;14.00;;;4.20;99.10;;;;;;4910536;29;20229;-78
2021/03/09 08:21:00;;;;;;;15.13;13.43;;;4.80;97.90;;;;;;4795759;30;20556;-81
2021/03/09 08:23:55;;;;;;;20.23;14.43;;;4.90;97.70;;;;;;4844873;29;20215;-81
2021/03/09 08:26:50;;;;;;;17.42;13.35;;;5.10;97.90;;;;;;4933376;29;20539;-81
2021/03/09 08:29:36;;;;;;;17.73;14.07;;;5.30;97.40;;;;;;4932821;29;20210;-81
2021/03/09 08:32:30;;;;;;;17.05;14.25;;;5.40;97.70;;;;;;4929871;29;20698;-84
2021/03/09 08:35:35;;;;;;;17.20;13.85;;;5.60;97.60;;;;;;4907796;29;20218;-81
2021/03/09 08:38:20;;;;;;;16.40;14.63;;;5.80;97.60;;;;;;4925615;29;20213;-81
2021/03/09 08:41:08;;;;;;;14.85;12.55;;;6.00;97.30;;;;;;4931371;29;20262;-80
2021/03/09 08:43:35;;;;;;;18.67;13.57;;;6.20;97.10;;;;;;4929998;29;20565;-81
2021/03/09 08:46:03;;;;;;;17.38;13.50;;;6.50;96.90;;;;;;4930865;29;20234;-81
2021/03/09 08:48:46;;;;;;;16.30;13.57;;;6.70;96.50;;;;;;4930939;29;20210;-81
2021/03/09 08:51:41;;;;;;;16.75;13.65;;;6.80;95.80;;;;;;4931091;29;20223;-81
2021/03/09 08:54:35;;;;;;;17.10;13.55;;;7.00;95.70;;;;;;4927033;29;20222;-82
2021/03/09 08:57:03;;;;;;;16.38;14.07;;;7.30;95.30;;;;;;4917463;29;20214;-81
2021/03/09 08:59:31;;;;;;;16.00;13.50;;;7.40;94.50;;;;;;4932873;29;20217;-81
2021/03/09 09:02:12;;;;;;;15.70;13.73;;;7.50;94.00;;;;;;4933186;29;20234;-81
2021/03/09 09:04:42;;;;;;;17.20;15.35;;;7.70;94.00;;;;;;4932472;29;20217;-82
2021/03/09 09:07:24;;;;;;;21.08;15.93;;;7.80;92.90;;;;;;4930477;29;20278;-81
2021/03/09 09:09:53;;;;;;;16.55;14.10;;;7.90;92.60;;;;;;4929621;29;20263;-80
2021/03/09 09:12:33;;;;;;;16.38;13.15;;;8.00;92.10;;;;;;4928351;29;20801;-81
2021/03/09 09:15:12;;;;;;;16.92;15.00;;;8.10;91.90;;;;;;4922814;29;20657;-80
2021/03/09 09:17:41;;;;;;;17.63;14.63;;;8.20;91.70;;;;;;4930753;29;20255;-81
2021/03/09 09:20:09;;;;;;;18.60;13.82;;;8.20;91.10;;;;;;4929136;29;20674;-81
2021/03/09 09:22:36;;;;;;;17.52;14.45;;;8.30;90.90;;;;;;4926368;29;20230;-80
2021/03/09 09:25:06;;;;;;;17.58;15.35;;;8.40;90.90;;;;;;4924082;29;20299;-80
2021/03/09 09:27:40;;;;;;;16.58;13.30;;;8.40;91.00;;;;;;4923847;29;20212;-80
2021/03/09 09:30:09;;;;;;;15.88;13.43;;;8.60;90.90;;;;;;4926397;29;20218;-80
2021/03/09 09:32:54;;;;;;;14.50;13.00;;;8.60;90.40;;;;;;4927182;29;20212;-80
2021/03/09 09:35:22;;;;;;;15.35;13.38;;;8.70;89.50;;;;;;4927864;29;20195;-80
2021/03/09 09:37:53;;;;;;;15.43;13.82;;;8.70;88.90;;;;;;4928438;29;20216;-82
2021/03/09 09:40:23;;;;;;;16.83;14.90;;;8.70;89.20;;;;;;4931403;29;20195;-80
2021/03/09 09:42:59;;;;;;;19.08;13.95;;;8.70;89.30;;;;;;4926976;29;20234;-81
2021/03/09 09:45:27;;;;;;;19.35;15.20;;;8.70;89.40;;;;;;4927649;29;20567;-83
2021/03/09 09:47:58;;;;;;;25.83;14.30;;;8.70;89.70;;;;;;4930268;29;20216;-82
2021/03/09 09:50:28;;;;;;;16.42;14.68;;;8.80;89.00;;;;;;4929040;29;20285;-81
2021/03/09 09:52:59;;;;;;;14.33;12.90;;;9.00;88.60;;;;;;4929149;29;20756;-81
2021/03/09 09:55:28;;;;;;;18.35;14.68;;;9.10;88.90;;;;;;4928625;29;21060;-82
2021/03/09 09:57:56;;;;;;;16.38;13.75;;;9.20;87.70;;;;;;4929628;29;20247;-81
2021/03/09 10:00:27;;;;;;;15.82;14.07;;;9.40;87.20;;;;;;4927830;29;20849;-81
2021/03/09 10:03:16;;;;;;;18.83;13.48;;;9.50;87.30;;;;;;4926936;29;20228;-81
2021/03/09 10:05:44;;;;;;;15.73;12.50;;;9.60;87.80;;;;;;4926558;29;20272;-81
2021/03/09 10:08:12;;;;;;;13.73;12.40;;;9.70;84.60;;;;;;4925491;29;20223;-81
2021/03/09 10:10:41;;;;;;;12.88;11.50;;;9.80;83.50;;;;;;4924430;29;20471;-80
2021/03/09 10:13:23;;;;;;;15.77;13.07;;;9.70;82.70;;;;;;4925589;29;20255;-80
2021/03/09 10:15:50;;;;;;;15.70;13.60;;;9.70;82.80;;;;;;4919047;29;20258;-80
2021/03/09 10:18:28;;;;;;;12.80;11.53;;;9.80;83.60;;;;;;4925619;29;20462;-81
2021/03/09 10:21:10;;;;;;;9.60;8.80;;;9.90;84.30;;;;;;4920509;29;20478;-81
2021/03/09 10:23:52;;;;;;;12.27;10.13;;;10.00;79.20;;;;;;4929074;29;20985;-81
2021/03/09 10:26:28;;;;;;;9.20;8.30;;;10.10;78.30;;;;;;4927856;29;20456;-80
2021/03/09 10:29:07;;;;;;;10.70;8.30;;;10.20;76.30;;;;;;4926590;29;20497;-80
2021/03/09 10:31:48;;;;;;;10.00;9.00;;;10.30;75.80;;;;;;4926208;29;20477;-80
2021/03/09 10:34:15;;;;;;;9.50;8.60;;;10.40;74.70;;;;;;4925239;29;20438;-80
2021/03/09 10:37:03;;;;;;;11.23;8.27;;;10.40;74.00;;;;;;4925041;29;20462;-80
2021/03/09 10:39:31;;;;;;;10.60;8.53;;;10.40;74.10;;;;;;4920641;29;20496;-80
2021/03/09 10:42:18;;;;;;;12.80;11.50;;;10.40;74.30;;;;;;4923163;29;20612;-80
2021/03/09 10:44:44;;;;;;;10.20;9.13;;;10.60;74.70;;;;;;4923064;29;20465;-80
2021/03/09 10:47:12;;;;;;;13.93;10.10;;;10.50;73.50;;;;;;4923732;29;20471;-80
2021/03/09 10:49:38;;;;;;;10.30;9.00;;;10.60;73.70;;;;;;4925178;29;20461;-81
2021/03/09 10:52:06;;;;;;;9.33;8.43;;;10.60;73.70;;;;;;4925365;29;20505;-81
2021/03/09 10:54:33;;;;;;;9.07;7.10;;;10.80;73.80;;;;;;4924551;29;20474;-82
2021/03/09 10:57:02;;;;;;;8.30;7.50;;;11.00;71.50;;;;;;4923809;29;20520;-82
2021/03/09 10:59:29;;;;;;;9.43;8.27;;;11.20;69.80;;;;;;4920511;29;20462;-82
2021/03/09 11:01:55;;;;;;;7.30;6.60;;;11.30;70.30;;;;;;4919248;29;20504;-81
2021/03/09 11:04:21;;;;;;;8.47;7.67;;;11.50;68.90;;;;;;4919293;29;20457;-81
2021/03/09 11:06:48;;;;;;;13.10;8.10;;;11.70;68.60;;;;;;4918693;29;20462;-81
2021/03/09 11:09:14;;;;;;;9.70;8.63;;;12.10;69.20;;;;;;4918938;29;20465;-81
2021/03/09 11:11:41;;;;;;;10.47;9.10;;;12.50;67.00;;;;;;4918302;29;20475;-81
2021/03/09 11:14:10;;;;;;;8.13;7.40;;;12.80;67.30;;;;;;4919871;29;20530;-83
2021/03/09 11:16:39;;;;;;;8.50;7.70;;;13.10;64.40;;;;;;4922968;29;20465;-83
2021/03/09 11:19:05;;;;;;;10.40;7.40;;;13.40;64.00;;;;;;4924592;29;20450;-82
2021/03/09 11:21:32;;;;;;;8.57;7.87;;;13.60;62.60;;;;;;4920588;29;20581;-82
2021/03/09 11:23:59;;;;;;;9.93;8.93;;;13.90;61.30;;;;;;4920832;29;20466;-82
2021/03/09 11:26:28;;;;;;;13.30;8.43;;;14.10;59.80;;;;;;4920575;29;20447;-83
2021/03/09 11:28:55;;;;;;;9.70;7.80;;;14.20;59.20;;;;;;4920220;29;20469;-82
2021/03/09 11:31:22;;;;;;;8.60;7.80;;;14.30;58.90;;;;;;4919821;29;20481;-82
2021/03/09 11:34:07;;;;;;;14.93;8.37;;;14.20;56.10;;;;;;4922503;29;20451;-84
2021/03/09 11:36:35;;;;;;;9.00;8.30;;;14.00;54.70;;;;;;4922272;29;20461;-83
2021/03/09 11:39:04;;;;;;;10.57;8.53;;;13.80;54.50;;;;;;4921635;29;20975;-84
2021/03/09 11:41:39;;;;;;;9.47;8.60;;;13.70;54.40;;;;;;4923906;29;20493;-84
2021/03/09 11:44:42;;;;;;;;;;;;;;;;;;;;;
2021/03/09 11:54:39;;;;;;;;;;;;;;;;;;;;;
2021/03/09 11:57:22;;;;;;;8.63;7.83;;;13.20;53.50;;;;;;4860870;29;20528;-84
2021/03/09 12:07:20;;;;;;;10.10;9.10;;;13.20;51.00;;;;;;4801743;29;20455;-84
2021/03/09 12:45:31;;;;;;;9.43;8.70;;;15.20;49.00;;;;;;4900789;29;20456;-82
2021/03/09 12:51:51;;;;;;;9.70;8.90;;;15.10;47.50;;;;;;4880448;29;21038;-82
2021/03/09 12:54:18;;;;;;;10.27;9.40;;;14.20;47.30;;;;;;4922167;29;20454;-82
2021/03/09 12:56:44;;;;;;;9.87;9.07;;;14.50;48.20;;;;;;4921426;29;20557;-82
2021/03/09 12:59:11;;;;;;;9.43;8.73;;;14.60;48.10;;;;;;4920903;29;20460;-82
2021/03/09 13:01:37;;;;;;;10.57;8.77;;;14.90;49.10;;;;;;4920880;29;20508;-82
2021/03/09 13:04:04;;;;;;;9.63;8.83;;;15.50;48.60;;;;;;4922306;29;20500;-82
2021/03/09 13:12:59;;;;;;;10.57;9.57;;;13.80;49.30;;;;;;4877758;29;20449;-83
2021/03/09 13:15:57;;;;;;;;;;;;;;;;;;;;;
2021/03/09 13:18:52;;;;;;;;;;;;;;;;;;;;;
2021/03/09 13:21:22;;;;;;;12.10;10.87;;;13.30;49.80;;;;;;4920759;29;20474;-82
2021/03/09 13:23:49;;;;;;;10.60;9.60;;;12.80;51.60;;;;;;4914051;29;20501;-82
2021/03/09 13:26:15;;;;;;;11.87;10.60;;;12.40;52.10;;;;;;4921578;29;20462;-82
2021/03/09 13:28:42;;;;;;;11.47;10.37;;;12.10;52.80;;;;;;4921321;29;21026;-82
2021/03/09 13:31:11;;;;;;;10.40;9.50;;;12.00;53.30;;;;;;4923489;29;20482;-84
2021/03/09 13:33:38;;;;;;;10.33;9.33;;;11.90;53.70;;;;;;4923480;29;20462;-82
2021/03/09 13:36:05;;;;;;;11.20;10.10;;;11.70;53.40;;;;;;4920704;29;20518;-81
2021/03/09 13:38:32;;;;;;;10.90;9.80;;;11.60;54.10;;;;;;4919946;29;20450;-83
2021/03/09 13:40:58;;;;;;;11.27;10.27;;;11.70;54.30;;;;;;4921702;29;20477;-82
2021/03/09 13:43:24;;;;;;;11.90;9.93;;;11.60;53.40;;;;;;4921725;29;20510;-82
2021/03/09 13:45:51;;;;;;;10.87;9.87;;;11.50;54.10;;;;;;4921672;29;20549;-82
2021/03/09 13:48:20;;;;;;;11.37;10.37;;;11.60;54.30;;;;;;4920601;29;20495;-82
2021/03/09 13:50:49;;;;;;;11.10;9.90;;;11.80;54.90;;;;;;4926631;29;20460;-82
2021/03/09 13:53:18;;;;;;;10.50;9.57;;;11.90;54.60;;;;;;4928902;29;20457;-82
2021/03/09 13:55:46;;;;;;;10.40;9.50;;;12.00;54.10;;;;;;4928816;29;20462;-84
2021/03/09 14:01:03;;;;;;;11.97;10.70;;;12.20;54.20;;;;;;4920712;29;20485;-83
2021/03/09 14:03:33;;;;;;;14.03;10.60;;;11.60;53.60;;;;;;4925766;29;20488;-84
2021/03/09 14:06:00;;;;;;;12.07;10.83;;;11.30;54.70;;;;;;4922035;29;20499;-83
2021/03/09 14:08:26;;;;;;;11.70;10.60;;;11.20;55.40;;;;;;4919401;29;20473;-82
2021/03/09 14:10:52;;;;;;;13.27;10.60;;;11.00;55.60;;;;;;4921616;29;20485;-83
2021/03/09 14:13:19;;;;;;;11.90;10.70;;;10.80;56.00;;;;;;4922947;29;20462;-81
2021/03/09 14:15:45;;;;;;;11.20;10.10;;;10.50;56.60;;;;;;4921887;29;20463;-82
2021/03/09 14:18:11;;;;;;;13.10;11.50;;;10.20;57.20;;;;;;4922409;29;20467;-82
2021/03/09 14:20:38;;;;;;;13.00;10.53;;;10.20;57.90;;;;;;4921596;29;20480;-81
2021/03/09 14:23:05;;;;;;;11.90;10.67;;;10.20;58.00;;;;;;4920969;29;20496;-82
2021/03/09 14:25:31;;;;;;;13.10;11.90;;;10.10;58.20;;;;;;4921141;29;20460;-82